Pagina principale
METAR-TAF:

METAR-TAF

Aeroporti :

Grenchen, Svizzera

latitudine: 47-10-53N, longitudine: 007-24-59E, altezza: 430 m

Osservazione

Il bollettino è stato emesso 36 minuti fa, alle 01:50 UTC
Vento calmo
Temperature 6°C
Umidità 87%
Pressione 1011 hPa
Visibilità 10 km o più
nessuna nube inferiore a 1500 m e nessun cumulonembo

METAR: LSZG 220150Z AUTO 00000KT CAVOK 06/04 Q1011

Ora: 04:26 (02:26 UTC)

Previsione

Il bollettino è stato emesso 12 ore e 1 minuti fa, alle 14:25 UTC
Previsione valida dal 21 alle 15 UTC al 21 alle 24 UTC
Vento 3 kt da ovest
Visibilità 10 km o più
nessuna nube inferiore a 1500 m e nessun cumulonembo

TAF: LSZG 211425Z 2115/2124 26003KT CAVOK

Osservazioni e previsioni meteorologiche di più di 4000 aeroporti (messaggi METAR e TAF).

Le stazioni disponibili sono rappresentate dai dischi gialli e rossi sulla carta.

Puntare il mouse per vedere il nome della stazione.

Clicca sopra per visualizzare le osservazioni e previsioni meteorologiche.

Per cambiare la mappa : fare clic sui pulsanti verdi con una croce nera per ingrandire, il pulsante verde con un trattino per diminuire, o sulla freccia verde per le mappe adiacenti.


METAR-TAF: